createdAt,value
2022-11-30T00:01:12.638Z,24.67
2022-11-30T00:03:39.396Z,18.20
2022-11-30T00:06:12.451Z,21.77
2022-11-30T00:08:39.407Z,24.57
2022-11-30T00:11:14.739Z,23.67
2022-11-30T00:13:41.915Z,23.50
2022-11-30T00:16:08.941Z,26.50
2022-11-30T00:18:36.622Z,27.63
2022-11-30T00:21:06.168Z,25.03
2022-11-30T00:23:34.163Z,20.83
2022-11-30T00:26:05.693Z,24.70
2022-11-30T00:28:33.124Z,24.30
2022-11-30T00:31:01.769Z,27.40
2022-11-30T00:33:29.309Z,24.20
2022-11-30T00:36:01.370Z,21.23
2022-11-30T00:38:28.593Z,26.07
2022-11-30T00:40:56.536Z,30.33
2022-11-30T00:43:23.411Z,24.50
2022-11-30T00:45:50.241Z,24.07
2022-11-30T00:48:17.084Z,24.93
2022-11-30T00:50:43.872Z,27.20
2022-11-30T00:53:10.662Z,27.80
2022-11-30T00:55:37.325Z,26.90
2022-11-30T00:58:04.292Z,25.57
2022-11-30T01:00:30.946Z,31.30
2022-11-30T01:02:59.327Z,30.47
2022-11-30T01:05:26.346Z,33.70
2022-11-30T01:07:53.134Z,31.17
2022-11-30T01:10:19.869Z,29.27
2022-11-30T01:12:46.545Z,25.33
2022-11-30T01:15:13.180Z,26.13
2022-11-30T01:17:39.925Z,28.03
2022-11-30T01:20:08.064Z,25.40
2022-11-30T01:22:35.055Z,27.27
2022-11-30T01:25:01.851Z,29.30
2022-11-30T01:27:28.544Z,22.87
2022-11-30T01:29:55.209Z,30.57
2022-11-30T01:32:22.057Z,25.70
2022-11-30T01:34:48.961Z,31.07
2022-11-30T01:37:15.832Z,30.97
2022-11-30T01:39:42.517Z,25.87
2022-11-30T01:42:17.604Z,28.73
2022-11-30T01:45:00.971Z,32.80
2022-11-30T01:47:39.177Z,25.33
2022-11-30T01:50:20.759Z,25.53
2022-11-30T01:52:51.772Z,28.30
2022-11-30T01:55:31.445Z,28.17
2022-11-30T01:58:03.777Z,31.20
2022-11-30T02:00:30.459Z,31.37
2022-11-30T02:03:00.752Z,28.57
2022-11-30T02:05:28.018Z,27.43
2022-11-30T02:07:55.228Z,26.03
2022-11-30T02:10:27.388Z,28.53
2022-11-30T02:12:53.990Z,32.37
2022-11-30T02:15:27.092Z,34.93
2022-11-30T02:18:08.226Z,28.97
2022-11-30T02:20:43.862Z,30.27
2022-11-30T02:23:41.583Z,30.27
2022-11-30T02:26:34.375Z,29.87
2022-11-30T02:29:08.113Z,26.43
2022-11-30T02:31:52.530Z,29.33
2022-11-30T02:34:22.197Z,31.20
2022-11-30T02:36:49.361Z,26.90
2022-11-30T02:39:17.085Z,29.43
2022-11-30T02:41:45.784Z,22.63
2022-11-30T02:44:13.412Z,28.03
2022-11-30T02:46:59.570Z,27.90
2022-11-30T02:49:45.193Z,30.43
2022-11-30T02:52:14.293Z,29.80
2022-11-30T02:54:41.076Z,27.53
2022-11-30T02:57:08.093Z,27.73
2022-11-30T02:59:35.242Z,27.53
2022-11-30T03:02:02.026Z,30.77
2022-11-30T03:04:28.803Z,37.57
2022-11-30T03:06:55.522Z,34.07
2022-11-30T03:09:22.384Z,29.43
2022-11-30T03:11:49.053Z,25.00
2022-11-30T03:14:15.790Z,28.37
2022-11-30T03:16:44.075Z,32.70
2022-11-30T03:19:10.788Z,37.23
2022-11-30T03:21:37.472Z,33.70
2022-11-30T03:24:04.329Z,30.70
2022-11-30T03:26:30.959Z,33.03
2022-11-30T03:28:57.669Z,39.90
2022-11-30T03:31:24.367Z,32.70
2022-11-30T03:33:51.088Z,36.83
2022-11-30T03:36:17.795Z,25.47
2022-11-30T03:38:44.487Z,31.13
2022-11-30T03:41:14.184Z,35.40
2022-11-30T03:43:41.120Z,28.50
2022-11-30T03:46:08.244Z,29.30
2022-11-30T03:48:36.077Z,31.27
2022-11-30T03:51:04.247Z,28.07
2022-11-30T03:53:31.651Z,29.33
2022-11-30T03:56:00.778Z,31.23
2022-11-30T03:58:27.806Z,34.97
2022-11-30T04:01:01.662Z,31.70
2022-11-30T04:03:29.341Z,34.50
2022-11-30T04:05:56.827Z,28.73
2022-11-30T04:09:07.097Z,30.60
2022-11-30T04:11:33.828Z,28.97
2022-11-30T04:14:00.482Z,28.80
2022-11-30T04:16:27.290Z,28.37
2022-11-30T04:18:54.018Z,26.80
2022-11-30T04:21:20.649Z,25.50
2022-11-30T04:23:47.302Z,27.77
2022-11-30T04:26:16.280Z,26.67
2022-11-30T04:28:43.344Z,28.73
2022-11-30T04:31:10.489Z,29.17
2022-11-30T04:33:37.190Z,29.57
2022-11-30T04:36:06.773Z,32.10
2022-11-30T04:38:35.967Z,32.60
2022-11-30T04:41:07.868Z,28.80
2022-11-30T04:43:34.685Z,28.20
2022-11-30T04:46:01.328Z,31.23
2022-11-30T04:48:28.043Z,29.57
2022-11-30T04:50:54.705Z,25.97
2022-11-30T04:53:21.376Z,26.90
2022-11-30T04:55:48.012Z,29.87
2022-11-30T04:58:14.703Z,27.83
2022-11-30T05:00:41.384Z,29.43
2022-11-30T05:03:08.056Z,29.93
2022-11-30T05:05:34.730Z,30.23
2022-11-30T05:08:01.609Z,28.53
2022-11-30T05:10:28.686Z,24.97
2022-11-30T05:12:56.194Z,25.13
2022-11-30T05:15:22.919Z,29.30
2022-11-30T05:17:49.629Z,28.00
2022-11-30T05:20:16.490Z,32.30
2022-11-30T05:22:43.415Z,28.40
2022-11-30T05:25:10.586Z,28.37
2022-11-30T05:27:38.013Z,30.03
2022-11-30T05:30:05.722Z,31.13
2022-11-30T05:32:32.617Z,30.03
2022-11-30T05:34:59.537Z,30.33
2022-11-30T05:37:26.400Z,32.93
2022-11-30T05:39:53.093Z,32.03
2022-11-30T05:42:19.767Z,30.67
2022-11-30T05:44:47.752Z,30.13
2022-11-30T05:47:14.901Z,29.80
2022-11-30T05:49:41.579Z,29.57
2022-11-30T05:52:08.271Z,29.07
2022-11-30T05:54:35.162Z,24.63
2022-11-30T05:57:01.884Z,34.17
2022-11-30T05:59:28.552Z,31.53
2022-11-30T06:01:55.365Z,31.23
2022-11-30T06:04:22.477Z,31.97
2022-11-30T06:06:49.525Z,40.73
2022-11-30T06:09:16.421Z,30.77
2022-11-30T06:11:43.218Z,33.37
2022-11-30T06:14:09.888Z,30.43
2022-11-30T06:16:41.159Z,32.50
2022-11-30T06:19:07.847Z,29.50
2022-11-30T06:21:35.004Z,33.77
2022-11-30T06:24:01.678Z,26.83
2022-11-30T06:26:28.423Z,30.03
2022-11-30T06:28:55.071Z,31.00
2022-11-30T06:31:21.798Z,33.93
2022-11-30T06:33:49.054Z,32.57
2022-11-30T06:36:23.604Z,33.97
2022-11-30T06:38:51.135Z,28.47
2022-11-30T06:41:17.895Z,34.03
2022-11-30T06:43:44.720Z,31.80
2022-11-30T06:46:11.661Z,33.13
2022-11-30T06:48:39.000Z,29.67
2022-11-30T06:51:07.181Z,33.00
2022-11-30T06:53:34.176Z,30.10
2022-11-30T06:56:10.319Z,32.03
2022-11-30T06:58:39.650Z,28.43
2022-11-30T07:01:08.875Z,37.30
2022-11-30T07:03:36.285Z,36.67
2022-11-30T07:06:10.992Z,41.43
2022-11-30T07:08:38.888Z,35.20
2022-11-30T07:11:06.771Z,31.37
2022-11-30T07:13:33.798Z,34.03
2022-11-30T07:16:06.894Z,29.83
2022-11-30T07:18:34.288Z,31.40
2022-11-30T07:21:02.402Z,29.13
2022-11-30T07:23:54.110Z,30.57
2022-11-30T07:26:23.195Z,32.00
2022-11-30T07:28:55.209Z,32.90
2022-11-30T07:31:28.476Z,34.93
2022-11-30T07:33:56.738Z,33.90
2022-11-30T07:36:25.487Z,31.27
2022-11-30T07:38:52.633Z,28.57
2022-11-30T07:41:19.329Z,36.10
2022-11-30T07:43:46.031Z,30.87
2022-11-30T07:46:14.276Z,31.43
2022-11-30T07:48:41.912Z,36.30
2022-11-30T07:51:14.849Z,43.93
2022-11-30T07:53:41.849Z,39.00
2022-11-30T07:56:14.109Z,38.23
2022-11-30T07:58:41.657Z,35.37
2022-11-30T08:01:11.562Z,28.73
2022-11-30T08:03:38.521Z,30.30
2022-11-30T08:06:14.512Z,22.70
2022-11-30T08:08:43.267Z,33.23
2022-11-30T08:11:12.315Z,28.30
2022-11-30T08:13:39.213Z,21.53
2022-11-30T08:16:17.721Z,21.77
2022-11-30T08:18:44.923Z,19.40
2022-11-30T08:21:14.088Z,19.77
2022-11-30T08:23:47.199Z,18.17
2022-11-30T08:26:16.127Z,22.90
2022-11-30T08:28:44.194Z,16.63
2022-11-30T08:31:22.787Z,15.47
2022-11-30T08:33:50.076Z,17.40
2022-11-30T08:36:21.680Z,18.33
2022-11-30T08:38:48.806Z,17.57
2022-11-30T08:41:21.371Z,21.03
2022-11-30T08:43:49.066Z,16.47
2022-11-30T08:49:20.837Z,20.83
2022-11-30T08:54:40.032Z,19.03
2022-11-30T08:57:06.731Z,15.93
2022-11-30T08:59:33.592Z,16.80
2022-11-30T09:02:00.323Z,18.13
2022-11-30T09:04:27.070Z,15.50
2022-11-30T09:06:58.607Z,19.80
2022-11-30T09:09:25.781Z,15.80
2022-11-30T09:11:52.519Z,15.30
2022-11-30T09:14:19.278Z,15.87
2022-11-30T09:16:45.949Z,19.03
2022-11-30T09:19:12.616Z,22.50
2022-11-30T09:21:39.378Z,19.33
2022-11-30T09:24:06.239Z,17.07
2022-11-30T09:26:33.096Z,15.53
2022-11-30T09:29:00.286Z,18.07
2022-11-30T09:31:27.792Z,16.37
2022-11-30T09:33:57.052Z,19.17
2022-11-30T09:36:27.080Z,16.50
2022-11-30T09:38:55.093Z,15.90
2022-11-30T09:41:33.416Z,16.57
2022-11-30T09:44:15.484Z,20.23
2022-11-30T09:46:55.733Z,17.43
2022-11-30T09:49:27.407Z,16.20
2022-11-30T09:51:58.547Z,16.37
2022-11-30T09:54:37.707Z,17.70
2022-11-30T09:57:25.744Z,14.13
2022-11-30T09:59:59.690Z,12.27
2022-11-30T10:02:32.289Z,15.43
2022-11-30T10:05:00.416Z,13.60
2022-11-30T10:08:01.674Z,15.77
2022-11-30T10:10:33.037Z,14.53
2022-11-30T10:13:07.397Z,10.93
2022-11-30T10:16:06.340Z,12.97
2022-11-30T10:18:51.831Z,15.30
2022-11-30T10:21:36.402Z,11.27
2022-11-30T10:24:47.211Z,14.93
2022-11-30T10:27:29.200Z,12.73
2022-11-30T10:29:57.946Z,11.10
2022-11-30T10:32:35.446Z,13.40
2022-11-30T10:35:42.548Z,11.80
2022-11-30T10:38:19.162Z,13.53
2022-11-30T10:41:22.707Z,15.00
2022-11-30T10:44:09.900Z,14.57
2022-11-30T10:46:42.409Z,13.77
2022-11-30T10:49:16.676Z,14.97
2022-11-30T10:51:48.968Z,12.70
2022-11-30T10:54:19.604Z,12.50
2022-11-30T10:56:46.764Z,11.47
2022-11-30T10:59:22.272Z,13.47
2022-11-30T11:01:49.047Z,14.77
2022-11-30T11:04:17.253Z,13.97
2022-11-30T11:06:49.139Z,14.00
2022-11-30T11:09:48.926Z,14.20
2022-11-30T11:12:24.419Z,14.20
2022-11-30T11:15:28.000Z,12.73
2022-11-30T11:18:20.258Z,10.93
2022-11-30T11:20:47.099Z,13.43
2022-11-30T11:23:37.246Z,12.43
2022-11-30T11:26:06.119Z,16.13
2022-11-30T11:28:35.690Z,14.47
2022-11-30T11:31:35.888Z,14.87
2022-11-30T11:34:04.315Z,12.47
2022-11-30T11:36:33.593Z,11.20
2022-11-30T11:39:01.154Z,12.80
2022-11-30T11:41:34.094Z,12.60
2022-11-30T11:44:09.900Z,14.67
2022-11-30T11:46:59.060Z,14.03
2022-11-30T11:49:31.639Z,13.90
2022-11-30T11:52:15.576Z,14.43
2022-11-30T11:55:01.743Z,14.97
2022-11-30T11:57:46.514Z,15.90
2022-11-30T12:00:18.434Z,13.13
2022-11-30T12:02:48.242Z,13.47
2022-11-30T12:05:32.108Z,15.33
2022-11-30T12:08:16.395Z,16.70
2022-11-30T12:11:11.908Z,14.70
2022-11-30T12:13:41.935Z,13.55
2022-11-30T12:16:43.382Z,13.47
2022-11-30T12:19:17.409Z,12.33
2022-11-30T12:22:01.473Z,15.70
2022-11-30T12:24:39.346Z,14.63
2022-11-30T12:27:12.637Z,10.87
2022-11-30T12:30:09.963Z,11.73
2022-11-30T12:32:55.771Z,12.50
2022-11-30T12:35:40.980Z,10.33
2022-11-30T12:38:38.062Z,14.10
2022-11-30T12:41:24.111Z,12.97
2022-11-30T12:44:28.520Z,10.47
2022-11-30T12:47:17.657Z,13.13
2022-11-30T12:50:01.010Z,12.00
2022-11-30T12:52:39.441Z,11.37
2022-11-30T12:55:24.146Z,12.27
2022-11-30T12:58:12.085Z,12.03
2022-11-30T13:01:06.510Z,10.53
2022-11-30T13:03:46.566Z,10.03
2022-11-30T13:06:26.735Z,12.17
2022-11-30T13:09:00.233Z,10.87
2022-11-30T13:11:36.281Z,10.30
2022-11-30T13:14:09.127Z,10.03
2022-11-30T13:16:36.996Z,11.07
2022-11-30T13:19:44.328Z,14.00
2022-11-30T13:22:45.501Z,15.63
2022-11-30T13:26:06.730Z,10.70
2022-11-30T13:28:43.279Z,9.50
2022-11-30T13:31:30.024Z,9.93
2022-11-30T13:33:57.722Z,9.23
2022-11-30T13:36:38.747Z,14.63
2022-11-30T13:39:09.774Z,10.60
2022-11-30T13:41:38.110Z,11.57
2022-11-30T13:44:05.192Z,10.13
2022-11-30T13:46:32.082Z,9.23
2022-11-30T13:49:24.173Z,9.87
2022-11-30T13:52:13.702Z,10.10
2022-11-30T13:54:48.301Z,9.57
2022-11-30T13:57:25.281Z,10.53
2022-11-30T13:59:53.657Z,9.73
2022-11-30T14:02:43.514Z,10.67
2022-11-30T14:05:19.142Z,11.23
2022-11-30T14:08:07.289Z,12.90
2022-11-30T14:10:42.659Z,11.07
2022-11-30T14:13:09.739Z,9.17
2022-11-30T14:15:39.143Z,11.73
2022-11-30T14:18:08.588Z,12.20
2022-11-30T14:20:48.628Z,11.13
2022-11-30T14:23:40.160Z,10.03
2022-11-30T14:26:11.415Z,12.73
2022-11-30T14:28:51.663Z,9.70
2022-11-30T14:31:25.873Z,11.17
2022-11-30T14:34:02.481Z,11.80
2022-11-30T14:36:37.634Z,13.57
2022-11-30T14:39:04.456Z,13.17
2022-11-30T14:41:32.193Z,11.63
2022-11-30T14:44:01.208Z,11.87
2022-11-30T14:46:28.224Z,12.80
2022-11-30T14:49:13.825Z,15.00
2022-11-30T14:51:43.343Z,13.43
2022-11-30T14:54:15.472Z,15.90
2022-11-30T14:56:48.819Z,15.93
2022-11-30T14:59:45.008Z,16.77
2022-11-30T15:02:38.801Z,33.53
2022-11-30T15:05:07.586Z,22.60
2022-11-30T15:07:37.609Z,17.90
2022-11-30T15:10:16.219Z,19.67
2022-11-30T15:12:44.987Z,21.87
2022-11-30T15:15:22.897Z,22.57
2022-11-30T15:17:52.339Z,145.90
2022-11-30T15:20:36.280Z,73.60
2022-11-30T15:23:03.285Z,26.90
2022-11-30T15:25:44.000Z,22.83
2022-11-30T15:28:14.938Z,15.80
2022-11-30T15:30:44.236Z,19.30
2022-11-30T15:33:19.846Z,36.13
2022-11-30T15:36:16.003Z,34.33
2022-11-30T15:38:39.217Z,58.33
2022-11-30T15:41:17.335Z,25.27
2022-11-30T15:43:52.733Z,55.33
2022-11-30T15:46:29.903Z,34.40
2022-11-30T15:49:12.830Z,148.07
2022-11-30T15:51:42.122Z,32.40
2022-11-30T15:54:08.978Z,28.83
2022-11-30T15:56:36.262Z,38.67
2022-11-30T15:59:34.049Z,31.23
2022-11-30T16:02:08.309Z,23.63
2022-11-30T16:05:10.894Z,22.00
2022-11-30T16:08:03.357Z,19.93
2022-11-30T16:10:36.636Z,21.07
2022-11-30T16:13:04.200Z,24.60
2022-11-30T16:15:35.091Z,21.90
2022-11-30T16:18:11.232Z,20.93
2022-11-30T16:20:38.016Z,24.13
2022-11-30T16:23:06.236Z,22.80
2022-11-30T16:25:32.949Z,21.07
2022-11-30T16:27:59.621Z,26.10
2022-11-30T16:30:26.326Z,13.80
2022-11-30T16:32:53.042Z,14.53
2022-11-30T16:35:42.110Z,11.13
2022-11-30T16:38:08.825Z,10.73
2022-11-30T16:40:39.005Z,14.30
2022-11-30T16:43:06.348Z,10.47
2022-11-30T16:45:37.420Z,13.37
2022-11-30T16:48:04.335Z,14.60
2022-11-30T16:50:34.677Z,11.07
2022-11-30T16:53:03.007Z,13.33
2022-11-30T16:55:32.440Z,11.73
2022-11-30T16:57:59.082Z,12.10
2022-11-30T17:00:26.072Z,12.27
2022-11-30T17:03:01.987Z,11.50
2022-11-30T17:05:28.735Z,16.77
2022-11-30T17:07:55.505Z,15.03
2022-11-30T17:10:22.949Z,15.20
2022-11-30T17:12:49.848Z,11.83
2022-11-30T17:15:19.681Z,14.63
2022-11-30T17:17:46.503Z,11.03
2022-11-30T17:20:15.497Z,13.13
2022-11-30T17:22:43.844Z,14.80
2022-11-30T17:25:19.367Z,13.57
2022-11-30T17:27:47.186Z,12.40
2022-11-30T17:30:16.245Z,11.83
2022-11-30T17:32:43.125Z,13.43
2022-11-30T17:35:10.320Z,18.93
2022-11-30T17:37:37.036Z,13.63
2022-11-30T17:40:04.907Z,14.30
2022-11-30T17:42:31.594Z,15.40
2022-11-30T17:44:58.378Z,17.20
2022-11-30T17:47:25.559Z,14.70
2022-11-30T17:49:52.314Z,15.83
2022-11-30T17:52:19.014Z,15.73
2022-11-30T17:54:46.051Z,16.13
2022-11-30T17:57:12.945Z,18.13
2022-11-30T17:59:39.654Z,19.50
2022-11-30T18:02:06.606Z,19.27
2022-11-30T18:04:33.301Z,25.40
2022-11-30T18:07:00.027Z,20.47
2022-11-30T18:09:27.643Z,14.83
2022-11-30T18:11:54.540Z,13.93
2022-11-30T18:14:21.252Z,12.10
2022-11-30T18:16:47.972Z,11.87
2022-11-30T18:19:15.420Z,12.80
2022-11-30T18:21:45.713Z,13.17
2022-11-30T18:24:12.873Z,12.20
2022-11-30T18:26:39.814Z,18.60
2022-11-30T18:29:07.512Z,13.63
2022-11-30T18:31:36.144Z,13.70
2022-11-30T18:34:06.067Z,12.97
2022-11-30T18:36:33.850Z,15.43
2022-11-30T18:39:00.807Z,17.23
2022-11-30T18:41:30.096Z,27.37
2022-11-30T18:43:57.344Z,22.47
2022-11-30T18:46:24.704Z,14.30
2022-11-30T18:48:52.697Z,18.37
2022-11-30T18:51:22.617Z,14.43
2022-11-30T18:53:49.906Z,12.27
2022-11-30T18:56:19.426Z,12.80
2022-11-30T18:58:47.159Z,13.23
2022-11-30T19:01:18.008Z,15.80
2022-11-30T19:03:53.673Z,22.20
2022-11-30T19:06:21.217Z,18.10
2022-11-30T19:08:48.227Z,15.77
2022-11-30T19:11:16.224Z,15.40
2022-11-30T19:13:43.861Z,13.57
2022-11-30T19:16:13.974Z,16.57
2022-11-30T19:18:40.821Z,19.63
2022-11-30T19:21:09.499Z,16.80
2022-11-30T19:23:37.689Z,17.33
2022-11-30T19:26:05.734Z,19.33
2022-11-30T19:28:34.048Z,16.23
2022-11-30T19:31:05.946Z,14.93
2022-11-30T19:33:36.008Z,14.83
2022-11-30T19:36:04.548Z,15.33
2022-11-30T19:38:31.724Z,12.80
2022-11-30T19:40:58.465Z,12.27
2022-11-30T19:43:25.278Z,12.13
2022-11-30T19:45:52.143Z,11.70
2022-11-30T19:48:18.869Z,10.30
2022-11-30T19:50:45.602Z,11.30
2022-11-30T19:53:12.251Z,9.27
2022-11-30T19:55:40.316Z,11.87
2022-11-30T19:58:07.104Z,27.10
2022-11-30T20:00:33.797Z,12.20
2022-11-30T20:03:00.514Z,15.07
2022-11-30T20:05:27.343Z,13.93
2022-11-30T20:07:54.121Z,10.70
2022-11-30T20:10:20.783Z,16.17
2022-11-30T20:12:47.467Z,13.27
2022-11-30T20:15:14.165Z,9.83
2022-11-30T20:17:40.822Z,9.33
2022-11-30T20:20:07.843Z,8.57
2022-11-30T20:22:34.589Z,7.43
2022-11-30T20:25:01.311Z,7.87
2022-11-30T20:27:27.983Z,9.10
2022-11-30T20:29:55.554Z,6.57
2022-11-30T20:32:22.325Z,5.70
2022-11-30T20:34:49.465Z,9.07
2022-11-30T20:37:17.873Z,10.77
2022-11-30T20:39:46.261Z,8.43
2022-11-30T20:42:13.435Z,9.00
2022-11-30T20:44:40.106Z,8.43
2022-11-30T20:47:06.833Z,10.53
2022-11-30T20:49:33.726Z,13.43
2022-11-30T20:52:00.421Z,14.47
2022-11-30T20:54:29.818Z,17.07
2022-11-30T20:56:58.704Z,9.73
2022-11-30T20:59:26.659Z,10.20
2022-11-30T21:01:56.971Z,12.00
2022-11-30T21:04:25.675Z,14.73
2022-11-30T21:06:53.235Z,10.27
2022-11-30T21:09:20.488Z,10.47
2022-11-30T21:11:48.608Z,12.30
2022-11-30T21:14:15.537Z,12.47
2022-11-30T21:16:42.324Z,13.07
2022-11-30T21:19:10.633Z,13.20
2022-11-30T21:21:37.438Z,12.90
2022-11-30T21:24:07.562Z,11.97
2022-11-30T21:26:37.155Z,15.53
2022-11-30T21:29:07.083Z,14.10
2022-11-30T21:31:34.996Z,15.40
2022-11-30T21:34:02.163Z,13.73
2022-11-30T21:36:29.305Z,13.87
2022-11-30T21:39:04.477Z,14.10
2022-11-30T21:41:31.527Z,14.63
2022-11-30T21:43:58.200Z,15.30
2022-11-30T21:46:24.953Z,15.43
2022-11-30T21:48:52.276Z,14.97
2022-11-30T21:51:24.305Z,20.53
2022-11-30T21:53:56.916Z,18.67
2022-11-30T21:56:27.169Z,20.20
2022-11-30T21:58:54.236Z,20.13
2022-11-30T22:01:24.751Z,18.87
2022-11-30T22:03:53.875Z,22.20
2022-11-30T22:06:22.928Z,20.83
2022-11-30T22:08:49.988Z,17.77
2022-11-30T22:11:21.386Z,19.80
2022-11-30T22:13:53.197Z,17.77
2022-11-30T22:16:21.209Z,14.83
2022-11-30T22:18:48.076Z,17.13
2022-11-30T22:21:17.176Z,15.33
2022-11-30T22:23:53.421Z,16.37
2022-11-30T22:26:21.342Z,15.60
2022-11-30T22:28:50.427Z,20.27
2022-11-30T22:31:19.345Z,17.10
2022-11-30T22:33:47.064Z,16.23
2022-11-30T22:36:16.383Z,17.43
2022-11-30T22:38:43.885Z,15.63
2022-11-30T22:41:13.685Z,16.93
2022-11-30T22:43:41.496Z,16.67
2022-11-30T22:46:14.143Z,18.13
2022-11-30T22:48:41.764Z,18.47
2022-11-30T22:51:13.734Z,19.70
2022-11-30T22:53:41.233Z,18.63
2022-11-30T22:56:17.668Z,14.97
2022-11-30T22:58:46.993Z,18.23
2022-11-30T23:01:19.334Z,18.70
2022-11-30T23:03:47.745Z,21.57
2022-11-30T23:06:16.590Z,17.13
2022-11-30T23:08:44.693Z,19.40
2022-11-30T23:11:15.252Z,21.20
2022-11-30T23:13:42.966Z,19.77
2022-11-30T23:16:11.863Z,21.07
2022-11-30T23:18:41.393Z,17.23
2022-11-30T23:21:26.762Z,22.23
2022-11-30T23:23:55.457Z,19.50
2022-11-30T23:26:27.628Z,20.90
2022-11-30T23:28:55.459Z,21.57
2022-11-30T23:31:34.297Z,22.20
2022-11-30T23:34:11.351Z,23.63
2022-11-30T23:36:38.042Z,20.80
2022-11-30T23:39:09.119Z,20.63
2022-11-30T23:41:36.136Z,19.83
2022-11-30T23:44:03.452Z,22.37
2022-11-30T23:46:30.886Z,22.07
2022-11-30T23:48:57.775Z,21.60
2022-11-30T23:51:24.930Z,20.50
2022-11-30T23:53:51.742Z,20.60
2022-11-30T23:56:20.353Z,17.90
2022-11-30T23:58:47.185Z,21.70
